sensor_id;sensor_type;location;lat;lon;timestamp;P1;durP1;ratioP1;P2;durP2;ratioP2
66830;SDS011;53739;44.224;22.528;2023-05-17T05:31:18;27.38;;;20.17;;
66830;SDS011;53739;44.224;22.528;2023-05-17T07:02:42;18.70;;;11.63;;
66830;SDS011;53739;44.224;22.528;2023-05-17T07:05:08;20.88;;;12.15;;
66830;SDS011;53739;44.224;22.528;2023-05-17T07:07:43;20.83;;;12.43;;
66830;SDS011;53739;44.224;22.528;2023-05-17T07:13:09;15.55;;;11.82;;
66830;SDS011;53739;44.224;22.528;2023-05-17T07:15:41;17.63;;;10.57;;
66830;SDS011;53739;44.224;22.528;2023-05-17T07:18:10;20.52;;;14.02;;
66830;SDS011;53739;44.224;22.528;2023-05-17T07:20:42;26.75;;;18.25;;
66830;SDS011;53739;44.224;22.528;2023-05-17T07:23:18;28.67;;;19.33;;
66830;SDS011;53739;44.224;22.528;2023-05-17T07:25:47;24.25;;;12.50;;
66830;SDS011;53739;44.224;22.528;2023-05-17T07:31:05;22.88;;;16.08;;
66830;SDS011;53739;44.224;22.528;2023-05-17T07:33:35;23.58;;;12.80;;
66830;SDS011;53739;44.224;22.528;2023-05-17T07:36:05;17.63;;;13.57;;
66830;SDS011;53739;44.224;22.528;2023-05-17T07:38:31;20.48;;;13.52;;
66830;SDS011;53739;44.224;22.528;2023-05-17T07:41:00;22.50;;;14.57;;
66830;SDS011;53739;44.224;22.528;2023-05-17T07:43:31;18.38;;;15.65;;
66830;SDS011;53739;44.224;22.528;2023-05-17T07:45:59;19.92;;;14.50;;
66830;SDS011;53739;44.224;22.528;2023-05-17T07:48:39;27.40;;;16.93;;
66830;SDS011;53739;44.224;22.528;2023-05-17T07:51:10;24.85;;;15.55;;
66830;SDS011;53739;44.224;22.528;2023-05-17T07:53:45;31.15;;;17.67;;
66830;SDS011;53739;44.224;22.528;2023-05-17T07:56:49;19.80;;;14.88;;
66830;SDS011;53739;44.224;22.528;2023-05-17T07:59:22;19.08;;;14.20;;
66830;SDS011;53739;44.224;22.528;2023-05-17T08:01:49;27.42;;;19.23;;
66830;SDS011;53739;44.224;22.528;2023-05-17T08:04:15;21.60;;;15.15;;
66830;SDS011;53739;44.224;22.528;2023-05-17T08:06:41;19.13;;;15.75;;
66830;SDS011;53739;44.224;22.528;2023-05-17T08:09:11;17.60;;;13.82;;
66830;SDS011;53739;44.224;22.528;2023-05-17T08:14:21;20.63;;;14.77;;
66830;SDS011;53739;44.224;22.528;2023-05-17T08:19:40;20.40;;;14.52;;
66830;SDS011;53739;44.224;22.528;2023-05-17T08:25:19;33.25;;;24.02;;
66830;SDS011;53739;44.224;22.528;2023-05-17T08:27:58;27.35;;;17.05;;
66830;SDS011;53739;44.224;22.528;2023-05-17T08:30:27;28.63;;;17.75;;
66830;SDS011;53739;44.224;22.528;2023-05-17T08:33:08;30.52;;;23.08;;
66830;SDS011;53739;44.224;22.528;2023-05-17T08:35:48;36.47;;;21.27;;
66830;SDS011;53739;44.224;22.528;2023-05-17T08:38:14;72.82;;;36.92;;
66830;SDS011;53739;44.224;22.528;2023-05-17T08:40:40;53.53;;;27.55;;
66830;SDS011;53739;44.224;22.528;2023-05-17T08:43:37;143.18;;;69.82;;
66830;SDS011;53739;44.224;22.528;2023-05-17T08:46:15;66.68;;;30.08;;
66830;SDS011;53739;44.224;22.528;2023-05-17T08:51:54;344.55;;;144.65;;
66830;SDS011;53739;44.224;22.528;2023-05-17T08:55:07;109.40;;;51.72;;
66830;SDS011;53739;44.224;22.528;2023-05-17T09:00:54;40.75;;;26.92;;
66830;SDS011;53739;44.224;22.528;2023-05-17T09:03:44;30.17;;;21.27;;
66830;SDS011;53739;44.224;22.528;2023-05-17T09:06:23;19.77;;;15.88;;
66830;SDS011;53739;44.224;22.528;2023-05-17T09:08:53;25.42;;;17.27;;
66830;SDS011;53739;44.224;22.528;2023-05-17T09:14:20;28.20;;;19.17;;
66830;SDS011;53739;44.224;22.528;2023-05-17T09:31:34;22.20;;;18.10;;
66830;SDS011;53739;44.224;22.528;2023-05-17T09:34:00;27.90;;;19.15;;
66830;SDS011;53739;44.224;22.528;2023-05-17T09:36:27;22.63;;;16.60;;
66830;SDS011;53739;44.224;22.528;2023-05-17T09:38:58;54.55;;;33.10;;
66830;SDS011;53739;44.224;22.528;2023-05-17T09:41:45;39.65;;;26.67;;
66830;SDS011;53739;44.224;22.528;2023-05-17T09:44:14;49.58;;;31.92;;
66830;SDS011;53739;44.224;22.528;2023-05-17T09:46:49;37.15;;;25.92;;
66830;SDS011;53739;44.224;22.528;2023-05-17T09:49:25;46.70;;;33.47;;
66830;SDS011;53739;44.224;22.528;2023-05-17T09:51:55;43.38;;;27.23;;
66830;SDS011;53739;44.224;22.528;2023-05-17T09:54:24;43.72;;;30.83;;
66830;SDS011;53739;44.224;22.528;2023-05-17T09:56:53;28.80;;;17.58;;
66830;SDS011;53739;44.224;22.528;2023-05-17T09:59:19;16.30;;;11.88;;
66830;SDS011;53739;44.224;22.528;2023-05-17T10:01:55;22.73;;;14.90;;
66830;SDS011;53739;44.224;22.528;2023-05-17T10:04:31;21.20;;;13.95;;
66830;SDS011;53739;44.224;22.528;2023-05-17T10:07:01;27.42;;;14.65;;
66830;SDS011;53739;44.224;22.528;2023-05-17T10:09:30;18.65;;;13.68;;
66830;SDS011;53739;44.224;22.528;2023-05-17T10:12:16;15.77;;;12.70;;
66830;SDS011;53739;44.224;22.528;2023-05-17T10:21:06;17.55;;;11.40;;
66830;SDS011;53739;44.224;22.528;2023-05-17T10:23:37;14.02;;;9.98;;
66830;SDS011;53739;44.224;22.528;2023-05-17T10:26:06;17.88;;;10.35;;
66830;SDS011;53739;44.224;22.528;2023-05-17T10:31:44;15.80;;;11.40;;
66830;SDS011;53739;44.224;22.528;2023-05-17T10:34:20;17.20;;;11.77;;
66830;SDS011;53739;44.224;22.528;2023-05-17T10:36:48;18.10;;;12.60;;
66830;SDS011;53739;44.224;22.528;2023-05-17T10:39:21;12.82;;;9.60;;
66830;SDS011;53739;44.224;22.528;2023-05-17T10:42:13;23.55;;;11.65;;
66830;SDS011;53739;44.224;22.528;2023-05-17T10:51:36;18.73;;;10.68;;
66830;SDS011;53739;44.224;22.528;2023-05-17T10:54:33;15.65;;;10.20;;
66830;SDS011;53739;44.224;22.528;2023-05-17T11:05:27;18.83;;;12.60;;
66830;SDS011;53739;44.224;22.528;2023-05-17T11:10:54;16.70;;;12.07;;
66830;SDS011;53739;44.224;22.528;2023-05-17T11:13:28;18.00;;;12.38;;
66830;SDS011;53739;44.224;22.528;2023-05-17T11:16:06;15.65;;;11.25;;
66830;SDS011;53739;44.224;22.528;2023-05-17T11:18:50;13.90;;;10.75;;
66830;SDS011;53739;44.224;22.528;2023-05-17T11:21:16;20.45;;;11.90;;
66830;SDS011;53739;44.224;22.528;2023-05-17T11:24:01;19.95;;;12.80;;
66830;SDS011;53739;44.224;22.528;2023-05-17T11:26:35;20.42;;;10.88;;
66830;SDS011;53739;44.224;22.528;2023-05-17T11:29:06;15.30;;;12.10;;
66830;SDS011;53739;44.224;22.528;2023-05-17T11:43:38;17.10;;;13.32;;
66830;SDS011;53739;44.224;22.528;2023-05-17T11:46:10;20.50;;;14.35;;
66830;SDS011;53739;44.224;22.528;2023-05-17T11:48:46;16.45;;;12.93;;
66830;SDS011;53739;44.224;22.528;2023-05-17T11:51:13;18.27;;;14.35;;
66830;SDS011;53739;44.224;22.528;2023-05-17T11:57:03;20.83;;;12.47;;
66830;SDS011;53739;44.224;22.528;2023-05-17T11:59:33;20.33;;;11.52;;
66830;SDS011;53739;44.224;22.528;2023-05-17T12:02:02;18.00;;;12.02;;
66830;SDS011;53739;44.224;22.528;2023-05-17T12:04:37;20.40;;;11.90;;
66830;SDS011;53739;44.224;22.528;2023-05-17T12:10:11;24.98;;;15.02;;
66830;SDS011;53739;44.224;22.528;2023-05-17T12:13:04;21.60;;;13.73;;
66830;SDS011;53739;44.224;22.528;2023-05-17T12:15:40;16.80;;;13.30;;
66830;SDS011;53739;44.224;22.528;2023-05-17T12:18:14;22.95;;;15.45;;
66830;SDS011;53739;44.224;22.528;2023-05-17T12:26:48;17.65;;;12.73;;
66830;SDS011;53739;44.224;22.528;2023-05-17T12:29:17;25.08;;;15.88;;
66830;SDS011;53739;44.224;22.528;2023-05-17T12:31:55;18.33;;;11.70;;
66830;SDS011;53739;44.224;22.528;2023-05-17T12:37:36;17.15;;;12.02;;
66830;SDS011;53739;44.224;22.528;2023-05-17T12:40:10;17.50;;;11.82;;
66830;SDS011;53739;44.224;22.528;2023-05-17T12:42:59;25.88;;;15.60;;
66830;SDS011;53739;44.224;22.528;2023-05-17T12:45:41;22.20;;;15.35;;
66830;SDS011;53739;44.224;22.528;2023-05-17T12:48:07;28.03;;;14.77;;
66830;SDS011;53739;44.224;22.528;2023-05-17T12:50:33;16.45;;;11.80;;
66830;SDS011;53739;44.224;22.528;2023-05-17T12:53:06;19.33;;;13.02;;
66830;SDS011;53739;44.224;22.528;2023-05-17T12:58:30;17.20;;;12.10;;
66830;SDS011;53739;44.224;22.528;2023-05-17T13:01:01;27.42;;;16.95;;
66830;SDS011;53739;44.224;22.528;2023-05-17T13:03:43;20.50;;;14.32;;
66830;SDS011;53739;44.224;22.528;2023-05-17T13:06:22;36.00;;;19.50;;
66830;SDS011;53739;44.224;22.528;2023-05-17T13:08:56;25.55;;;14.68;;
66830;SDS011;53739;44.224;22.528;2023-05-17T13:11:28;21.40;;;14.05;;
66830;SDS011;53739;44.224;22.528;2023-05-17T13:14:10;24.38;;;17.67;;
66830;SDS011;53739;44.224;22.528;2023-05-17T13:16:47;19.88;;;15.63;;
66830;SDS011;53739;44.224;22.528;2023-05-17T13:19:22;28.07;;;17.53;;
66830;SDS011;53739;44.224;22.528;2023-05-17T13:21:53;28.80;;;20.52;;
66830;SDS011;53739;44.224;22.528;2023-05-17T13:24:24;24.95;;;18.67;;
66830;SDS011;53739;44.224;22.528;2023-05-17T13:27:01;24.13;;;16.30;;
66830;SDS011;53739;44.224;22.528;2023-05-17T13:29:28;22.75;;;16.15;;
66830;SDS011;53739;44.224;22.528;2023-05-17T13:32:02;27.17;;;17.45;;
66830;SDS011;53739;44.224;22.528;2023-05-17T13:34:38;26.25;;;17.60;;
66830;SDS011;53739;44.224;22.528;2023-05-17T13:37:16;37.95;;;26.40;;
66830;SDS011;53739;44.224;22.528;2023-05-17T13:39:43;30.85;;;23.10;;
66830;SDS011;53739;44.224;22.528;2023-05-17T13:42:09;36.47;;;27.23;;
66830;SDS011;53739;44.224;22.528;2023-05-17T13:44:39;43.92;;;25.60;;
66830;SDS011;53739;44.224;22.528;2023-05-17T13:47:06;34.85;;;22.23;;
66830;SDS011;53739;44.224;22.528;2023-05-17T13:49:32;29.92;;;21.52;;
66830;SDS011;53739;44.224;22.528;2023-05-17T13:51:58;44.00;;;26.40;;
66830;SDS011;53739;44.224;22.528;2023-05-17T13:54:25;43.72;;;26.88;;
66830;SDS011;53739;44.224;22.528;2023-05-17T13:56:52;47.90;;;29.65;;
66830;SDS011;53739;44.224;22.528;2023-05-17T13:59:19;56.33;;;31.15;;
66830;SDS011;53739;44.224;22.528;2023-05-17T14:01:45;88.43;;;53.67;;
66830;SDS011;53739;44.224;22.528;2023-05-17T14:04:12;157.88;;;91.75;;
66830;SDS011;53739;44.224;22.528;2023-05-17T14:06:38;203.88;;;122.35;;
66830;SDS011;53739;44.224;22.528;2023-05-17T14:09:04;120.25;;;70.57;;
66830;SDS011;53739;44.224;22.528;2023-05-17T14:11:30;154.57;;;91.32;;
66830;SDS011;53739;44.224;22.528;2023-05-17T14:14:03;394.73;;;217.45;;
66830;SDS011;53739;44.224;22.528;2023-05-17T14:16:29;130.17;;;89.30;;
66830;SDS011;53739;44.224;22.528;2023-05-17T14:19:14;98.78;;;71.20;;
66830;SDS011;53739;44.224;22.528;2023-05-17T14:24:43;64.90;;;45.20;;
66830;SDS011;53739;44.224;22.528;2023-05-17T14:27:10;63.53;;;36.30;;
66830;SDS011;53739;44.224;22.528;2023-05-17T14:29:39;47.95;;;32.33;;
66830;SDS011;53739;44.224;22.528;2023-05-17T14:32:05;46.58;;;31.67;;
66830;SDS011;53739;44.224;22.528;2023-05-17T14:34:37;30.77;;;19.83;;
66830;SDS011;53739;44.224;22.528;2023-05-17T14:37:03;25.35;;;17.95;;
66830;SDS011;53739;44.224;22.528;2023-05-17T14:39:29;23.08;;;14.23;;
66830;SDS011;53739;44.224;22.528;2023-05-17T14:41:55;20.60;;;14.73;;
66830;SDS011;53739;44.224;22.528;2023-05-17T14:44:23;19.42;;;12.05;;
66830;SDS011;53739;44.224;22.528;2023-05-17T14:47:00;20.33;;;13.60;;
66830;SDS011;53739;44.224;22.528;2023-05-17T14:49:50;30.17;;;18.10;;
66830;SDS011;53739;44.224;22.528;2023-05-17T15:37:18;18.50;;;13.88;;
66830;SDS011;53739;44.224;22.528;2023-05-17T15:49:26;28.23;;;20.20;;
66830;SDS011;53739;44.224;22.528;2023-05-17T16:07:10;73.15;;;42.30;;
66830;SDS011;53739;44.224;22.528;2023-05-17T16:31:26;68.68;;;47.72;;
66830;SDS011;53739;44.224;22.528;2023-05-17T17:02:12;48.25;;;35.63;;
66830;SDS011;53739;44.224;22.528;2023-05-17T17:04:53;43.53;;;30.92;;
66830;SDS011;53739;44.224;22.528;2023-05-17T17:07:23;53.25;;;32.85;;
66830;SDS011;53739;44.224;22.528;2023-05-17T17:09:58;38.83;;;29.05;;
66830;SDS011;53739;44.224;22.528;2023-05-17T17:12:24;39.15;;;28.00;;
66830;SDS011;53739;44.224;22.528;2023-05-17T17:14:51;36.85;;;28.58;;
66830;SDS011;53739;44.224;22.528;2023-05-17T17:17:17;36.55;;;27.52;;
66830;SDS011;53739;44.224;22.528;2023-05-17T17:19:46;31.67;;;27.40;;
66830;SDS011;53739;44.224;22.528;2023-05-17T17:22:12;33.42;;;28.30;;
66830;SDS011;53739;44.224;22.528;2023-05-17T17:24:58;34.28;;;28.95;;
66830;SDS011;53739;44.224;22.528;2023-05-17T17:27:24;34.72;;;30.65;;
66830;SDS011;53739;44.224;22.528;2023-05-17T17:30:16;38.72;;;31.40;;
66830;SDS011;53739;44.224;22.528;2023-05-17T17:38:43;50.08;;;36.35;;
66830;SDS011;53739;44.224;22.528;2023-05-17T17:41:10;59.85;;;41.72;;
66830;SDS011;53739;44.224;22.528;2023-05-17T17:43:52;51.63;;;40.25;;
66830;SDS011;53739;44.224;22.528;2023-05-17T17:46:18;41.88;;;31.85;;
66830;SDS011;53739;44.224;22.528;2023-05-17T17:48:55;44.00;;;32.58;;
66830;SDS011;53739;44.224;22.528;2023-05-17T17:51:23;37.03;;;29.77;;
66830;SDS011;53739;44.224;22.528;2023-05-17T17:54:03;40.03;;;29.13;;
66830;SDS011;53739;44.224;22.528;2023-05-17T17:56:31;41.15;;;31.40;;
66830;SDS011;53739;44.224;22.528;2023-05-17T17:59:00;40.33;;;27.85;;
66830;SDS011;53739;44.224;22.528;2023-05-17T18:01:31;30.45;;;23.33;;
66830;SDS011;53739;44.224;22.528;2023-05-17T18:04:05;60.60;;;39.53;;
66830;SDS011;53739;44.224;22.528;2023-05-17T18:06:35;102.63;;;52.58;;
66830;SDS011;53739;44.224;22.528;2023-05-17T18:09:03;156.88;;;76.35;;
66830;SDS011;53739;44.224;22.528;2023-05-17T18:11:51;86.28;;;46.22;;
66830;SDS011;53739;44.224;22.528;2023-05-17T18:14:17;139.90;;;72.97;;
66830;SDS011;53739;44.224;22.528;2023-05-17T18:16:46;141.10;;;73.88;;
66830;SDS011;53739;44.224;22.528;2023-05-17T18:19:21;106.05;;;61.35;;
66830;SDS011;53739;44.224;22.528;2023-05-17T18:21:50;106.47;;;63.35;;
66830;SDS011;53739;44.224;22.528;2023-05-17T18:24:16;111.38;;;71.85;;
66830;SDS011;53739;44.224;22.528;2023-05-17T18:26:49;78.78;;;54.30;;
66830;SDS011;53739;44.224;22.528;2023-05-17T18:29:18;115.18;;;78.78;;
66830;SDS011;53739;44.224;22.528;2023-05-17T18:32:12;56.53;;;43.20;;
66830;SDS011;53739;44.224;22.528;2023-05-17T18:34:54;62.90;;;48.40;;
66830;SDS011;53739;44.224;22.528;2023-05-17T18:37:23;76.75;;;61.33;;
66830;SDS011;53739;44.224;22.528;2023-05-17T18:39:54;53.22;;;42.30;;
66830;SDS011;53739;44.224;22.528;2023-05-17T18:42:36;73.32;;;59.22;;
66830;SDS011;53739;44.224;22.528;2023-05-17T18:45:09;102.70;;;74.53;;
66830;SDS011;53739;44.224;22.528;2023-05-17T18:47:35;132.10;;;93.82;;
66830;SDS011;53739;44.224;22.528;2023-05-17T18:50:17;50.08;;;40.40;;
66830;SDS011;53739;44.224;22.528;2023-05-17T18:53:08;169.93;;;121.28;;
66830;SDS011;53739;44.224;22.528;2023-05-17T18:55:56;125.53;;;95.20;;
66830;SDS011;53739;44.224;22.528;2023-05-17T18:58:26;88.25;;;66.32;;
66830;SDS011;53739;44.224;22.528;2023-05-17T19:04:05;51.10;;;34.55;;
66830;SDS011;53739;44.224;22.528;2023-05-17T19:06:34;58.17;;;47.78;;
66830;SDS011;53739;44.224;22.528;2023-05-17T19:09:11;66.78;;;53.63;;
66830;SDS011;53739;44.224;22.528;2023-05-17T19:11:45;39.20;;;32.63;;
66830;SDS011;53739;44.224;22.528;2023-05-17T19:14:18;39.67;;;29.80;;
66830;SDS011;53739;44.224;22.528;2023-05-17T19:17:13;46.05;;;34.88;;
66830;SDS011;53739;44.224;22.528;2023-05-17T19:19:51;56.40;;;41.03;;
66830;SDS011;53739;44.224;22.528;2023-05-17T19:22:28;57.40;;;47.28;;
66830;SDS011;53739;44.224;22.528;2023-05-17T19:25:02;46.20;;;37.88;;
66830;SDS011;53739;44.224;22.528;2023-05-17T19:27:31;50.00;;;40.28;;
66830;SDS011;53739;44.224;22.528;2023-05-17T19:30:16;75.38;;;56.10;;
66830;SDS011;53739;44.224;22.528;2023-05-17T19:32:54;221.52;;;158.48;;
66830;SDS011;53739;44.224;22.528;2023-05-17T19:35:37;138.23;;;103.68;;
66830;SDS011;53739;44.224;22.528;2023-05-17T19:38:32;145.23;;;107.97;;
66830;SDS011;53739;44.224;22.528;2023-05-17T19:44:00;77.93;;;58.13;;
66830;SDS011;53739;44.224;22.528;2023-05-17T19:46:26;117.78;;;83.40;;
66830;SDS011;53739;44.224;22.528;2023-05-17T19:48:52;85.47;;;59.75;;
66830;SDS011;53739;44.224;22.528;2023-05-17T19:51:20;75.20;;;55.95;;
66830;SDS011;53739;44.224;22.528;2023-05-17T19:53:53;71.60;;;48.15;;
66830;SDS011;53739;44.224;22.528;2023-05-17T19:56:19;62.35;;;44.63;;
66830;SDS011;53739;44.224;22.528;2023-05-17T19:58:45;55.03;;;42.42;;
66830;SDS011;53739;44.224;22.528;2023-05-17T20:01:11;60.42;;;46.33;;
66830;SDS011;53739;44.224;22.528;2023-05-17T20:03:40;52.40;;;39.28;;
66830;SDS011;53739;44.224;22.528;2023-05-17T20:06:06;40.47;;;32.50;;
66830;SDS011;53739;44.224;22.528;2023-05-17T20:08:35;46.53;;;31.38;;
66830;SDS011;53739;44.224;22.528;2023-05-17T20:11:01;48.67;;;34.35;;
66830;SDS011;53739;44.224;22.528;2023-05-17T20:13:27;70.80;;;50.13;;
66830;SDS011;53739;44.224;22.528;2023-05-17T20:15:53;32.45;;;25.13;;
66830;SDS011;53739;44.224;22.528;2023-05-17T20:18:19;45.97;;;37.67;;
66830;SDS011;53739;44.224;22.528;2023-05-17T20:20:46;30.13;;;25.52;;
66830;SDS011;53739;44.224;22.528;2023-05-17T20:23:12;38.55;;;33.85;;
66830;SDS011;53739;44.224;22.528;2023-05-17T20:25:38;66.45;;;56.50;;
66830;SDS011;53739;44.224;22.528;2023-05-17T20:28:05;52.58;;;44.90;;
66830;SDS011;53739;44.224;22.528;2023-05-17T20:30:32;40.10;;;29.48;;
66830;SDS011;53739;44.224;22.528;2023-05-17T20:32:58;33.50;;;24.92;;
66830;SDS011;53739;44.224;22.528;2023-05-17T20:35:24;24.70;;;19.52;;
66830;SDS011;53739;44.224;22.528;2023-05-17T20:37:50;25.50;;;20.60;;
66830;SDS011;53739;44.224;22.528;2023-05-17T20:40:16;25.58;;;20.52;;
66830;SDS011;53739;44.224;22.528;2023-05-17T20:42:42;32.83;;;20.88;;
66830;SDS011;53739;44.224;22.528;2023-05-17T20:45:09;24.95;;;20.23;;
66830;SDS011;53739;44.224;22.528;2023-05-17T20:47:41;33.10;;;26.40;;
66830;SDS011;53739;44.224;22.528;2023-05-17T20:50:07;38.03;;;30.27;;
66830;SDS011;53739;44.224;22.528;2023-05-17T20:52:38;42.83;;;34.45;;
66830;SDS011;53739;44.224;22.528;2023-05-17T21:04:54;25.52;;;19.75;;
66830;SDS011;53739;44.224;22.528;2023-05-17T21:21:50;58.45;;;36.95;;
66830;SDS011;53739;44.224;22.528;2023-05-17T21:24:16;98.63;;;49.28;;
66830;SDS011;53739;44.224;22.528;2023-05-17T21:26:42;183.50;;;73.05;;
66830;SDS011;53739;44.224;22.528;2023-05-17T21:29:10;60.17;;;33.33;;
66830;SDS011;53739;44.224;22.528;2023-05-17T21:31:36;59.45;;;32.10;;
66830;SDS011;53739;44.224;22.528;2023-05-17T21:34:07;404.45;;;164.43;;
66830;SDS011;53739;44.224;22.528;2023-05-17T21:36:39;68.15;;;35.50;;
66830;SDS011;53739;44.224;22.528;2023-05-17T21:39:08;98.55;;;47.75;;
66830;SDS011;53739;44.224;22.528;2023-05-17T21:41:44;63.17;;;30.25;;
66830;SDS011;53739;44.224;22.528;2023-05-17T21:44:12;103.30;;;46.33;;
66830;SDS011;53739;44.224;22.528;2023-05-17T22:00:31;48.90;;;27.48;;
66830;SDS011;53739;44.224;22.528;2023-05-17T22:06:33;204.13;;;94.10;;
66830;SDS011;53739;44.224;22.528;2023-05-17T22:09:29;118.93;;;57.47;;
66830;SDS011;53739;44.224;22.528;2023-05-17T22:12:08;204.25;;;91.05;;
66830;SDS011;53739;44.224;22.528;2023-05-17T22:21:11;142.65;;;63.42;;
66830;SDS011;53739;44.224;22.528;2023-05-17T22:24:09;149.00;;;66.80;;
66830;SDS011;53739;44.224;22.528;2023-05-17T22:27:04;119.07;;;57.75;;
66830;SDS011;53739;44.224;22.528;2023-05-17T22:32:36;35.85;;;20.77;;
66830;SDS011;53739;44.224;22.528;2023-05-17T22:35:02;95.82;;;45.42;;
66830;SDS011;53739;44.224;22.528;2023-05-17T23:16:31;19.55;;;14.90;;
66830;SDS011;53739;44.224;22.528;2023-05-17T23:28:07;37.00;;;26.45;;
66830;SDS011;53739;44.224;22.528;2023-05-17T23:30:41;21.48;;;15.40;;
66830;SDS011;53739;44.224;22.528;2023-05-17T23:33:08;20.42;;;12.50;;
